sensor_id;sensor_type;location;lat;lon;timestamp;temperature;humidity
45765;DHT22;31474;45.332;10.230;2023-06-05T00:01:48;19.80;99.90
45765;DHT22;31474;45.332;10.230;2023-06-05T00:04:16;19.80;99.90
45765;DHT22;31474;45.332;10.230;2023-06-05T00:06:41;19.90;99.90
45765;DHT22;31474;45.332;10.230;2023-06-05T00:09:08;19.90;99.90
45765;DHT22;31474;45.332;10.230;2023-06-05T00:11:33;19.90;99.90
45765;DHT22;31474;45.332;10.230;2023-06-05T00:13:59;19.90;99.90
45765;DHT22;31474;45.332;10.230;2023-06-05T00:16:25;20.00;99.90
45765;DHT22;31474;45.332;10.230;2023-06-05T00:18:50;20.00;99.90
45765;DHT22;31474;45.332;10.230;2023-06-05T00:21:16;20.00;99.90
45765;DHT22;31474;45.332;10.230;2023-06-05T00:23:42;20.00;99.90
45765;DHT22;31474;45.332;10.230;2023-06-05T00:26:08;19.90;99.90
45765;DHT22;31474;45.332;10.230;2023-06-05T00:28:34;19.90;99.90
45765;DHT22;31474;45.332;10.230;2023-06-05T00:31:00;19.90;99.90
45765;DHT22;31474;45.332;10.230;2023-06-05T00:33:26;19.80;99.90
45765;DHT22;31474;45.332;10.230;2023-06-05T00:35:54;19.80;99.90
45765;DHT22;31474;45.332;10.230;2023-06-05T00:38:19;19.80;99.90
45765;DHT22;31474;45.332;10.230;2023-06-05T00:40:46;19.80;99.90
45765;DHT22;31474;45.332;10.230;2023-06-05T00:43:11;19.80;99.90
45765;DHT22;31474;45.332;10.230;2023-06-05T00:45:37;19.70;99.90
45765;DHT22;31474;45.332;10.230;2023-06-05T00:48:03;19.70;99.90
45765;DHT22;31474;45.332;10.230;2023-06-05T00:50:29;19.80;99.90
45765;DHT22;31474;45.332;10.230;2023-06-05T00:52:58;19.80;99.90
45765;DHT22;31474;45.332;10.230;2023-06-05T00:55:25;19.90;99.90
45765;DHT22;31474;45.332;10.230;2023-06-05T00:57:51;19.80;99.90
45765;DHT22;31474;45.332;10.230;2023-06-05T01:00:16;19.80;99.90
45765;DHT22;31474;45.332;10.230;2023-06-05T01:02:42;19.80;99.90
45765;DHT22;31474;45.332;10.230;2023-06-05T01:05:08;19.80;99.90
45765;DHT22;31474;45.332;10.230;2023-06-05T01:07:35;19.80;99.90
45765;DHT22;31474;45.332;10.230;2023-06-05T01:10:05;19.80;99.90
45765;DHT22;31474;45.332;10.230;2023-06-05T01:12:53;19.80;99.90
45765;DHT22;31474;45.332;10.230;2023-06-05T01:15:23;19.80;99.90
45765;DHT22;31474;45.332;10.230;2023-06-05T01:17:58;19.80;99.90
45765;DHT22;31474;45.332;10.230;2023-06-05T01:20:38;19.80;99.90
45765;DHT22;31474;45.332;10.230;2023-06-05T01:23:13;19.80;99.90
45765;DHT22;31474;45.332;10.230;2023-06-05T01:25:38;19.80;99.90
45765;DHT22;31474;45.332;10.230;2023-06-05T01:28:22;19.80;99.90
45765;DHT22;31474;45.332;10.230;2023-06-05T01:31:06;19.80;99.90
45765;DHT22;31474;45.332;10.230;2023-06-05T01:33:54;19.80;99.90
45765;DHT22;31474;45.332;10.230;2023-06-05T01:36:22;19.80;99.90
45765;DHT22;31474;45.332;10.230;2023-06-05T01:38:49;19.80;99.90
45765;DHT22;31474;45.332;10.230;2023-06-05T01:41:16;19.70;99.90
45765;DHT22;31474;45.332;10.230;2023-06-05T01:43:42;19.80;99.90
45765;DHT22;31474;45.332;10.230;2023-06-05T01:46:10;19.70;99.90
45765;DHT22;31474;45.332;10.230;2023-06-05T01:48:37;19.70;99.90
45765;DHT22;31474;45.332;10.230;2023-06-05T01:51:04;19.70;99.90
45765;DHT22;31474;45.332;10.230;2023-06-05T01:53:30;19.70;99.90
45765;DHT22;31474;45.332;10.230;2023-06-05T01:55:56;19.70;99.90
45765;DHT22;31474;45.332;10.230;2023-06-05T01:58:25;19.60;99.90
45765;DHT22;31474;45.332;10.230;2023-06-05T02:00:52;19.60;99.90
45765;DHT22;31474;45.332;10.230;2023-06-05T02:03:24;19.60;99.90
45765;DHT22;31474;45.332;10.230;2023-06-05T02:05:50;19.70;99.90
45765;DHT22;31474;45.332;10.230;2023-06-05T02:08:20;19.70;99.90
45765;DHT22;31474;45.332;10.230;2023-06-05T02:10:49;19.60;99.90
45765;DHT22;31474;45.332;10.230;2023-06-05T02:13:14;19.60;99.90
45765;DHT22;31474;45.332;10.230;2023-06-05T02:15:48;19.60;99.90
45765;DHT22;31474;45.332;10.230;2023-06-05T02:18:17;19.40;99.90
45765;DHT22;31474;45.332;10.230;2023-06-05T02:20:43;19.40;99.90
45765;DHT22;31474;45.332;10.230;2023-06-05T02:23:09;19.50;99.90
45765;DHT22;31474;45.332;10.230;2023-06-05T02:25:35;19.40;99.90
45765;DHT22;31474;45.332;10.230;2023-06-05T02:28:01;19.40;99.90
45765;DHT22;31474;45.332;10.230;2023-06-05T02:30:26;19.40;99.90
45765;DHT22;31474;45.332;10.230;2023-06-05T02:32:52;19.40;99.90
45765;DHT22;31474;45.332;10.230;2023-06-05T02:35:22;19.30;99.90
45765;DHT22;31474;45.332;10.230;2023-06-05T02:37:48;19.40;99.90
45765;DHT22;31474;45.332;10.230;2023-06-05T02:40:14;19.40;99.90
45765;DHT22;31474;45.332;10.230;2023-06-05T02:42:40;19.30;99.90
45765;DHT22;31474;45.332;10.230;2023-06-05T02:45:07;19.30;99.90
45765;DHT22;31474;45.332;10.230;2023-06-05T02:47:33;19.20;99.90
45765;DHT22;31474;45.332;10.230;2023-06-05T02:49:59;19.20;99.90
45765;DHT22;31474;45.332;10.230;2023-06-05T02:52:25;19.20;99.90
45765;DHT22;31474;45.332;10.230;2023-06-05T02:54:51;19.20;99.90
45765;DHT22;31474;45.332;10.230;2023-06-05T02:57:17;19.20;99.90
45765;DHT22;31474;45.332;10.230;2023-06-05T02:59:43;19.20;99.90
45765;DHT22;31474;45.332;10.230;2023-06-05T03:02:09;19.20;99.90
45765;DHT22;31474;45.332;10.230;2023-06-05T03:04:35;19.20;99.90
45765;DHT22;31474;45.332;10.230;2023-06-05T03:07:01;19.30;99.90
45765;DHT22;31474;45.332;10.230;2023-06-05T03:09:31;19.30;99.90
45765;DHT22;31474;45.332;10.230;2023-06-05T03:11:57;19.30;99.90
45765;DHT22;31474;45.332;10.230;2023-06-05T03:14:23;19.30;99.90
45765;DHT22;31474;45.332;10.230;2023-06-05T03:16:49;19.30;99.90
45765;DHT22;31474;45.332;10.230;2023-06-05T03:19:14;19.20;99.90
45765;DHT22;31474;45.332;10.230;2023-06-05T03:21:41;19.20;99.90
45765;DHT22;31474;45.332;10.230;2023-06-05T03:24:10;19.10;99.90
45765;DHT22;31474;45.332;10.230;2023-06-05T03:26:38;19.10;99.90
45765;DHT22;31474;45.332;10.230;2023-06-05T03:29:04;19.10;99.90
45765;DHT22;31474;45.332;10.230;2023-06-05T03:31:30;19.10;99.90
45765;DHT22;31474;45.332;10.230;2023-06-05T03:33:56;19.10;99.90
45765;DHT22;31474;45.332;10.230;2023-06-05T03:36:23;19.10;99.90
45765;DHT22;31474;45.332;10.230;2023-06-05T03:38:49;19.10;99.90
45765;DHT22;31474;45.332;10.230;2023-06-05T03:41:15;19.00;99.90
45765;DHT22;31474;45.332;10.230;2023-06-05T03:43:41;19.00;99.90
45765;DHT22;31474;45.332;10.230;2023-06-05T03:46:07;19.00;99.90
45765;DHT22;31474;45.332;10.230;2023-06-05T03:48:32;19.00;99.90
45765;DHT22;31474;45.332;10.230;2023-06-05T03:50:58;19.00;99.90
45765;DHT22;31474;45.332;10.230;2023-06-05T03:53:26;19.00;99.90
45765;DHT22;31474;45.332;10.230;2023-06-05T03:55:55;19.00;99.90
45765;DHT22;31474;45.332;10.230;2023-06-05T03:58:22;18.90;99.90
45765;DHT22;31474;45.332;10.230;2023-06-05T04:00:48;18.90;99.90
45765;DHT22;31474;45.332;10.230;2023-06-05T04:03:15;18.80;99.90
45765;DHT22;31474;45.332;10.230;2023-06-05T04:05:41;18.80;99.90
45765;DHT22;31474;45.332;10.230;2023-06-05T04:08:08;18.90;99.90
45765;DHT22;31474;45.332;10.230;2023-06-05T04:10:35;18.90;99.90
45765;DHT22;31474;45.332;10.230;2023-06-05T04:13:01;18.90;99.90
45765;DHT22;31474;45.332;10.230;2023-06-05T04:15:27;18.80;99.90
45765;DHT22;31474;45.332;10.230;2023-06-05T04:17:53;18.80;99.90
45765;DHT22;31474;45.332;10.230;2023-06-05T04:20:19;18.90;99.90
45765;DHT22;31474;45.332;10.230;2023-06-05T04:22:45;18.90;99.90
45765;DHT22;31474;45.332;10.230;2023-06-05T04:25:12;18.90;99.90
45765;DHT22;31474;45.332;10.230;2023-06-05T04:27:42;18.90;99.90
45765;DHT22;31474;45.332;10.230;2023-06-05T04:30:10;18.90;99.90
45765;DHT22;31474;45.332;10.230;2023-06-05T04:32:37;18.90;99.90
45765;DHT22;31474;45.332;10.230;2023-06-05T04:35:04;19.00;99.90
45765;DHT22;31474;45.332;10.230;2023-06-05T04:37:29;19.00;99.90
45765;DHT22;31474;45.332;10.230;2023-06-05T04:39:55;19.00;99.90
45765;DHT22;31474;45.332;10.230;2023-06-05T04:42:21;18.90;99.90
45765;DHT22;31474;45.332;10.230;2023-06-05T04:44:58;18.90;99.90
45765;DHT22;31474;45.332;10.230;2023-06-05T04:47:24;19.00;99.90
45765;DHT22;31474;45.332;10.230;2023-06-05T04:49:50;19.00;99.90
45765;DHT22;31474;45.332;10.230;2023-06-05T04:52:17;18.90;99.90
45765;DHT22;31474;45.332;10.230;2023-06-05T04:54:46;18.80;99.90
45765;DHT22;31474;45.332;10.230;2023-06-05T04:57:11;18.80;99.90
45765;DHT22;31474;45.332;10.230;2023-06-05T04:59:37;18.80;99.90
45765;DHT22;31474;45.332;10.230;2023-06-05T05:02:03;18.80;99.90
45765;DHT22;31474;45.332;10.230;2023-06-05T05:04:29;18.80;99.90
45765;DHT22;31474;45.332;10.230;2023-06-05T05:06:55;18.80;99.90
45765;DHT22;31474;45.332;10.230;2023-06-05T05:09:27;18.80;99.90
45765;DHT22;31474;45.332;10.230;2023-06-05T05:11:52;18.80;99.90
45765;DHT22;31474;45.332;10.230;2023-06-05T05:14:18;18.90;99.90
45765;DHT22;31474;45.332;10.230;2023-06-05T05:16:44;18.90;99.90
45765;DHT22;31474;45.332;10.230;2023-06-05T05:19:10;18.90;99.90
45765;DHT22;31474;45.332;10.230;2023-06-05T05:21:36;18.90;99.90
45765;DHT22;31474;45.332;10.230;2023-06-05T05:24:02;18.90;99.90
45765;DHT22;31474;45.332;10.230;2023-06-05T05:26:27;18.80;99.90
45765;DHT22;31474;45.332;10.230;2023-06-05T05:28:53;18.90;99.90
45765;DHT22;31474;45.332;10.230;2023-06-05T05:31:19;18.90;99.90
45765;DHT22;31474;45.332;10.230;2023-06-05T05:33:45;18.90;99.90
45765;DHT22;31474;45.332;10.230;2023-06-05T05:36:10;18.90;99.90
45765;DHT22;31474;45.332;10.230;2023-06-05T05:38:36;19.00;99.90
45765;DHT22;31474;45.332;10.230;2023-06-05T05:41:01;18.90;99.90
45765;DHT22;31474;45.332;10.230;2023-06-05T05:43:27;18.90;99.90
45765;DHT22;31474;45.332;10.230;2023-06-05T05:45:53;18.90;99.90
45765;DHT22;31474;45.332;10.230;2023-06-05T05:48:18;18.90;99.90
45765;DHT22;31474;45.332;10.230;2023-06-05T05:50:44;19.00;99.90
45765;DHT22;31474;45.332;10.230;2023-06-05T05:53:10;19.10;99.90
45765;DHT22;31474;45.332;10.230;2023-06-05T05:55:36;19.00;99.90
45765;DHT22;31474;45.332;10.230;2023-06-05T05:58:01;19.10;99.90
45765;DHT22;31474;45.332;10.230;2023-06-05T06:00:27;19.00;99.90
45765;DHT22;31474;45.332;10.230;2023-06-05T06:02:53;18.90;99.90
45765;DHT22;31474;45.332;10.230;2023-06-05T06:05:19;18.90;99.90
45765;DHT22;31474;45.332;10.230;2023-06-05T06:07:46;18.90;99.90
45765;DHT22;31474;45.332;10.230;2023-06-05T06:10:11;18.90;99.90
45765;DHT22;31474;45.332;10.230;2023-06-05T06:12:38;18.90;99.90
45765;DHT22;31474;45.332;10.230;2023-06-05T06:15:05;18.90;99.90
45765;DHT22;31474;45.332;10.230;2023-06-05T06:17:30;18.90;99.90
45765;DHT22;31474;45.332;10.230;2023-06-05T06:19:56;18.90;99.90
45765;DHT22;31474;45.332;10.230;2023-06-05T06:22:22;18.80;99.90
45765;DHT22;31474;45.332;10.230;2023-06-05T06:24:48;18.80;99.90
45765;DHT22;31474;45.332;10.230;2023-06-05T06:27:15;18.70;99.90
45765;DHT22;31474;45.332;10.230;2023-06-05T06:29:50;18.60;99.90
45765;DHT22;31474;45.332;10.230;2023-06-05T06:32:18;18.50;99.90
45765;DHT22;31474;45.332;10.230;2023-06-05T06:34:43;18.60;99.90
45765;DHT22;31474;45.332;10.230;2023-06-05T06:37:13;18.60;99.90
45765;DHT22;31474;45.332;10.230;2023-06-05T06:39:41;18.60;99.90
45765;DHT22;31474;45.332;10.230;2023-06-05T06:42:06;18.60;99.90
45765;DHT22;31474;45.332;10.230;2023-06-05T06:44:32;18.60;99.90
45765;DHT22;31474;45.332;10.230;2023-06-05T06:46:58;18.60;99.90
45765;DHT22;31474;45.332;10.230;2023-06-05T06:49:23;18.60;99.90
45765;DHT22;31474;45.332;10.230;2023-06-05T06:51:49;18.60;99.90
45765;DHT22;31474;45.332;10.230;2023-06-05T06:54:15;18.60;99.90
45765;DHT22;31474;45.332;10.230;2023-06-05T06:56:40;18.60;99.90
45765;DHT22;31474;45.332;10.230;2023-06-05T06:59:11;18.70;99.90
45765;DHT22;31474;45.332;10.230;2023-06-05T07:01:43;18.70;99.90
45765;DHT22;31474;45.332;10.230;2023-06-05T07:04:20;18.70;99.90
45765;DHT22;31474;45.332;10.230;2023-06-05T07:06:47;18.80;99.90
45765;DHT22;31474;45.332;10.230;2023-06-05T07:09:13;18.70;99.90
45765;DHT22;31474;45.332;10.230;2023-06-05T07:11:39;18.70;99.90
45765;DHT22;31474;45.332;10.230;2023-06-05T07:14:05;18.60;99.90
45765;DHT22;31474;45.332;10.230;2023-06-05T07:16:31;18.70;99.90
45765;DHT22;31474;45.332;10.230;2023-06-05T07:18:57;18.60;99.90
45765;DHT22;31474;45.332;10.230;2023-06-05T07:21:22;18.60;99.90
45765;DHT22;31474;45.332;10.230;2023-06-05T07:23:48;18.60;99.90
45765;DHT22;31474;45.332;10.230;2023-06-05T07:26:17;18.50;99.90
45765;DHT22;31474;45.332;10.230;2023-06-05T07:28:43;18.50;99.90
45765;DHT22;31474;45.332;10.230;2023-06-05T07:31:09;18.50;99.90
45765;DHT22;31474;45.332;10.230;2023-06-05T07:33:35;18.40;99.90
45765;DHT22;31474;45.332;10.230;2023-06-05T07:36:01;18.40;99.90
45765;DHT22;31474;45.332;10.230;2023-06-05T07:38:27;18.40;99.90
45765;DHT22;31474;45.332;10.230;2023-06-05T07:40:53;18.30;99.90
45765;DHT22;31474;45.332;10.230;2023-06-05T07:43:18;18.30;99.90
45765;DHT22;31474;45.332;10.230;2023-06-05T07:45:44;18.30;99.90
45765;DHT22;31474;45.332;10.230;2023-06-05T07:48:09;18.30;99.90
45765;DHT22;31474;45.332;10.230;2023-06-05T07:50:35;18.20;99.90
45765;DHT22;31474;45.332;10.230;2023-06-05T07:53:01;18.10;99.90
45765;DHT22;31474;45.332;10.230;2023-06-05T07:55:27;18.10;99.90
45765;DHT22;31474;45.332;10.230;2023-06-05T07:57:53;18.10;99.90
45765;DHT22;31474;45.332;10.230;2023-06-05T08:00:20;18.10;99.90
45765;DHT22;31474;45.332;10.230;2023-06-05T08:02:46;18.00;99.90
45765;DHT22;31474;45.332;10.230;2023-06-05T08:05:15;17.90;99.90
45765;DHT22;31474;45.332;10.230;2023-06-05T08:07:42;17.90;99.90
45765;DHT22;31474;45.332;10.230;2023-06-05T08:10:08;17.90;99.90
45765;DHT22;31474;45.332;10.230;2023-06-05T08:12:34;18.00;99.90
45765;DHT22;31474;45.332;10.230;2023-06-05T08:15:00;18.00;99.90
45765;DHT22;31474;45.332;10.230;2023-06-05T08:17:27;17.90;99.90
45765;DHT22;31474;45.332;10.230;2023-06-05T08:19:53;18.10;99.90
45765;DHT22;31474;45.332;10.230;2023-06-05T08:22:19;18.10;99.90
45765;DHT22;31474;45.332;10.230;2023-06-05T08:24:44;18.10;99.90
45765;DHT22;31474;45.332;10.230;2023-06-05T08:27:10;18.10;99.90
45765;DHT22;31474;45.332;10.230;2023-06-05T08:29:35;18.10;99.90
45765;DHT22;31474;45.332;10.230;2023-06-05T08:32:04;18.10;99.90
45765;DHT22;31474;45.332;10.230;2023-06-05T08:34:31;18.10;99.90
45765;DHT22;31474;45.332;10.230;2023-06-05T08:36:57;18.20;99.90
45765;DHT22;31474;45.332;10.230;2023-06-05T08:39:26;18.20;99.90
45765;DHT22;31474;45.332;10.230;2023-06-05T08:41:57;18.20;99.90
45765;DHT22;31474;45.332;10.230;2023-06-05T08:44:27;18.20;99.90
45765;DHT22;31474;45.332;10.230;2023-06-05T08:47:01;18.10;99.90
45765;DHT22;31474;45.332;10.230;2023-06-05T08:49:28;18.20;99.90
45765;DHT22;31474;45.332;10.230;2023-06-05T08:52:05;18.20;99.90
45765;DHT22;31474;45.332;10.230;2023-06-05T08:54:36;18.40;99.90
45765;DHT22;31474;45.332;10.230;2023-06-05T08:57:02;18.50;99.90
45765;DHT22;31474;45.332;10.230;2023-06-05T08:59:30;18.60;99.90
45765;DHT22;31474;45.332;10.230;2023-06-05T09:01:59;18.60;99.90
45765;DHT22;31474;45.332;10.230;2023-06-05T09:04:25;18.70;99.90
45765;DHT22;31474;45.332;10.230;2023-06-05T09:06:56;18.70;99.90
45765;DHT22;31474;45.332;10.230;2023-06-05T09:09:22;18.70;99.90
45765;DHT22;31474;45.332;10.230;2023-06-05T09:12:01;18.80;99.90
45765;DHT22;31474;45.332;10.230;2023-06-05T09:14:27;18.80;99.90
45765;DHT22;31474;45.332;10.230;2023-06-05T09:16:53;18.90;99.90
45765;DHT22;31474;45.332;10.230;2023-06-05T09:19:18;18.80;99.90
45765;DHT22;31474;45.332;10.230;2023-06-05T09:21:54;18.80;99.90
45765;DHT22;31474;45.332;10.230;2023-06-05T09:24:21;19.00;99.90
45765;DHT22;31474;45.332;10.230;2023-06-05T09:27:05;19.10;99.90
45765;DHT22;31474;45.332;10.230;2023-06-05T09:29:39;19.00;99.90
45765;DHT22;31474;45.332;10.230;2023-06-05T09:32:06;19.10;99.90
45765;DHT22;31474;45.332;10.230;2023-06-05T09:34:36;19.10;99.90
45765;DHT22;31474;45.332;10.230;2023-06-05T09:37:05;19.20;99.90
45765;DHT22;31474;45.332;10.230;2023-06-05T09:39:34;19.30;99.90
45765;DHT22;31474;45.332;10.230;2023-06-05T09:42:00;19.20;99.90
45765;DHT22;31474;45.332;10.230;2023-06-05T09:44:27;19.20;99.90
45765;DHT22;31474;45.332;10.230;2023-06-05T09:47:02;19.40;99.90
45765;DHT22;31474;45.332;10.230;2023-06-05T09:49:32;19.40;99.90
45765;DHT22;31474;45.332;10.230;2023-06-05T09:52:00;19.40;99.90
45765;DHT22;31474;45.332;10.230;2023-06-05T09:54:28;19.50;99.90
45765;DHT22;31474;45.332;10.230;2023-06-05T09:56:59;19.50;99.90
45765;DHT22;31474;45.332;10.230;2023-06-05T09:59:27;19.60;99.90
45765;DHT22;31474;45.332;10.230;2023-06-05T10:01:54;19.70;99.90
45765;DHT22;31474;45.332;10.230;2023-06-05T10:04:23;19.70;99.90
45765;DHT22;31474;45.332;10.230;2023-06-05T10:06:51;19.80;99.90
45765;DHT22;31474;45.332;10.230;2023-06-05T10:09:17;19.80;99.90
45765;DHT22;31474;45.332;10.230;2023-06-05T10:11:43;19.80;99.90
45765;DHT22;31474;45.332;10.230;2023-06-05T10:14:13;19.80;99.90
45765;DHT22;31474;45.332;10.230;2023-06-05T10:16:39;20.00;99.90
45765;DHT22;31474;45.332;10.230;2023-06-05T10:19:06;20.00;99.90
45765;DHT22;31474;45.332;10.230;2023-06-05T10:21:32;20.00;99.90
45765;DHT22;31474;45.332;10.230;2023-06-05T10:24:05;20.10;99.90
45765;DHT22;31474;45.332;10.230;2023-06-05T10:29:11;20.10;99.90
45765;DHT22;31474;45.332;10.230;2023-06-05T10:31:48;20.10;99.90
45765;DHT22;31474;45.332;10.230;2023-06-05T10:39:48;20.20;99.90
45765;DHT22;31474;45.332;10.230;2023-06-05T10:42:27;20.40;99.90
45765;DHT22;31474;45.332;10.230;2023-06-05T10:44:55;20.40;99.90
45765;DHT22;31474;45.332;10.230;2023-06-05T10:52:43;21.00;99.90
45765;DHT22;31474;45.332;10.230;2023-06-05T10:55:10;21.10;99.90
45765;DHT22;31474;45.332;10.230;2023-06-05T11:00:37;20.80;99.90
45765;DHT22;31474;45.332;10.230;2023-06-05T11:03:05;20.50;99.90
45765;DHT22;31474;45.332;10.230;2023-06-05T11:05:31;20.60;99.90
45765;DHT22;31474;45.332;10.230;2023-06-05T11:08:14;20.50;99.90
45765;DHT22;31474;45.332;10.230;2023-06-05T11:13:24;20.30;99.90
45765;DHT22;31474;45.332;10.230;2023-06-05T11:15:50;20.30;99.90
45765;DHT22;31474;45.332;10.230;2023-06-05T11:18:34;20.30;99.90
45765;DHT22;31474;45.332;10.230;2023-06-05T11:21:01;20.40;99.90
45765;DHT22;31474;45.332;10.230;2023-06-05T11:23:27;20.50;99.90
45765;DHT22;31474;45.332;10.230;2023-06-05T11:25:56;20.50;99.90
45765;DHT22;31474;45.332;10.230;2023-06-05T11:28:42;20.50;99.90
45765;DHT22;31474;45.332;10.230;2023-06-05T11:31:08;20.40;99.90
45765;DHT22;31474;45.332;10.230;2023-06-05T11:33:34;20.30;99.90
45765;DHT22;31474;45.332;10.230;2023-06-05T11:36:09;20.30;99.90
45765;DHT22;31474;45.332;10.230;2023-06-05T11:38:35;20.40;99.90
45765;DHT22;31474;45.332;10.230;2023-06-05T11:41:05;20.40;99.90
45765;DHT22;31474;45.332;10.230;2023-06-05T11:43:32;20.50;99.90
45765;DHT22;31474;45.332;10.230;2023-06-05T11:45:59;20.60;99.90
45765;DHT22;31474;45.332;10.230;2023-06-05T11:48:25;20.70;99.90
45765;DHT22;31474;45.332;10.230;2023-06-05T11:51:02;20.70;99.90
45765;DHT22;31474;45.332;10.230;2023-06-05T11:53:29;20.70;99.90
45765;DHT22;31474;45.332;10.230;2023-06-05T11:55:56;20.70;99.90
45765;DHT22;31474;45.332;10.230;2023-06-05T11:58:37;20.60;99.90
45765;DHT22;31474;45.332;10.230;2023-06-05T12:01:14;20.50;99.90
45765;DHT22;31474;45.332;10.230;2023-06-05T12:03:46;20.50;99.90
45765;DHT22;31474;45.332;10.230;2023-06-05T12:06:12;20.50;99.90
45765;DHT22;31474;45.332;10.230;2023-06-05T12:08:39;20.50;99.90
45765;DHT22;31474;45.332;10.230;2023-06-05T12:11:24;20.60;99.90
45765;DHT22;31474;45.332;10.230;2023-06-05T12:13:54;20.60;99.90
45765;DHT22;31474;45.332;10.230;2023-06-05T12:18:56;20.70;99.90
45765;DHT22;31474;45.332;10.230;2023-06-05T12:21:27;20.60;99.90
45765;DHT22;31474;45.332;10.230;2023-06-05T12:24:01;20.60;99.90
45765;DHT22;31474;45.332;10.230;2023-06-05T12:26:27;20.50;99.90
45765;DHT22;31474;45.332;10.230;2023-06-05T12:29:04;20.50;99.90
45765;DHT22;31474;45.332;10.230;2023-06-05T12:31:36;20.50;99.90
45765;DHT22;31474;45.332;10.230;2023-06-05T12:34:05;20.60;99.90
45765;DHT22;31474;45.332;10.230;2023-06-05T12:36:37;20.60;99.90
45765;DHT22;31474;45.332;10.230;2023-06-05T12:39:03;20.70;99.90
45765;DHT22;31474;45.332;10.230;2023-06-05T12:41:31;20.70;99.90
45765;DHT22;31474;45.332;10.230;2023-06-05T12:44:01;20.70;99.90
45765;DHT22;31474;45.332;10.230;2023-06-05T12:46:27;20.70;99.90
45765;DHT22;31474;45.332;10.230;2023-06-05T12:48:53;20.70;99.90
45765;DHT22;31474;45.332;10.230;2023-06-05T12:51:19;20.80;99.90
45765;DHT22;31474;45.332;10.230;2023-06-05T12:53:46;20.70;99.90
45765;DHT22;31474;45.332;10.230;2023-06-05T12:56:11;20.70;99.90
45765;DHT22;31474;45.332;10.230;2023-06-05T12:58:37;20.80;99.90
45765;DHT22;31474;45.332;10.230;2023-06-05T13:01:02;20.80;99.90
45765;DHT22;31474;45.332;10.230;2023-06-05T13:03:29;20.80;99.90
45765;DHT22;31474;45.332;10.230;2023-06-05T13:05:54;20.70;99.90
45765;DHT22;31474;45.332;10.230;2023-06-05T13:08:20;20.70;99.90
45765;DHT22;31474;45.332;10.230;2023-06-05T13:10:46;20.60;99.90
45765;DHT22;31474;45.332;10.230;2023-06-05T13:13:11;20.80;99.90
45765;DHT22;31474;45.332;10.230;2023-06-05T13:15:38;20.80;99.90
45765;DHT22;31474;45.332;10.230;2023-06-05T13:18:04;20.80;99.90
45765;DHT22;31474;45.332;10.230;2023-06-05T13:20:30;20.90;99.90
45765;DHT22;31474;45.332;10.230;2023-06-05T13:22:55;21.00;99.90
45765;DHT22;31474;45.332;10.230;2023-06-05T13:25:21;21.10;99.90
45765;DHT22;31474;45.332;10.230;2023-06-05T13:27:47;21.20;99.90
45765;DHT22;31474;45.332;10.230;2023-06-05T13:30:12;21.20;99.90
45765;DHT22;31474;45.332;10.230;2023-06-05T13:32:38;21.20;99.90
45765;DHT22;31474;45.332;10.230;2023-06-05T13:35:05;21.20;99.90
45765;DHT22;31474;45.332;10.230;2023-06-05T13:37:31;21.30;99.90
45765;DHT22;31474;45.332;10.230;2023-06-05T13:39:57;21.40;99.90
45765;DHT22;31474;45.332;10.230;2023-06-05T13:42:22;21.40;99.90
45765;DHT22;31474;45.332;10.230;2023-06-05T13:44:48;21.30;99.90
45765;DHT22;31474;45.332;10.230;2023-06-05T13:47:14;21.40;99.90
45765;DHT22;31474;45.332;10.230;2023-06-05T13:49:40;21.40;99.90
45765;DHT22;31474;45.332;10.230;2023-06-05T13:52:06;21.50;99.90
45765;DHT22;31474;45.332;10.230;2023-06-05T13:54:32;21.50;99.90
45765;DHT22;31474;45.332;10.230;2023-06-05T13:56:58;21.50;99.90
45765;DHT22;31474;45.332;10.230;2023-06-05T13:59:25;21.50;99.90
45765;DHT22;31474;45.332;10.230;2023-06-05T14:01:50;21.50;99.90
45765;DHT22;31474;45.332;10.230;2023-06-05T14:04:16;21.50;99.90
45765;DHT22;31474;45.332;10.230;2023-06-05T14:06:42;21.50;99.90
45765;DHT22;31474;45.332;10.230;2023-06-05T14:09:07;21.60;99.90
45765;DHT22;31474;45.332;10.230;2023-06-05T14:11:34;21.60;99.90
45765;DHT22;31474;45.332;10.230;2023-06-05T14:13:59;21.60;99.90
45765;DHT22;31474;45.332;10.230;2023-06-05T14:16:27;21.70;99.90
45765;DHT22;31474;45.332;10.230;2023-06-05T14:18:52;21.80;99.90
45765;DHT22;31474;45.332;10.230;2023-06-05T14:21:18;21.80;99.90
45765;DHT22;31474;45.332;10.230;2023-06-05T14:23:44;21.70;99.90
45765;DHT22;31474;45.332;10.230;2023-06-05T14:26:09;21.70;99.90
45765;DHT22;31474;45.332;10.230;2023-06-05T14:28:36;21.60;99.90
45765;DHT22;31474;45.332;10.230;2023-06-05T14:31:02;21.60;99.90
45765;DHT22;31474;45.332;10.230;2023-06-05T14:33:27;21.60;99.90
45765;DHT22;31474;45.332;10.230;2023-06-05T14:35:54;21.60;99.90
45765;DHT22;31474;45.332;10.230;2023-06-05T14:38:20;21.60;99.90
45765;DHT22;31474;45.332;10.230;2023-06-05T14:40:45;21.50;99.90
45765;DHT22;31474;45.332;10.230;2023-06-05T14:43:11;21.60;99.90
45765;DHT22;31474;45.332;10.230;2023-06-05T14:45:37;21.60;99.90
45765;DHT22;31474;45.332;10.230;2023-06-05T14:48:02;21.60;99.90
45765;DHT22;31474;45.332;10.230;2023-06-05T14:50:28;21.60;99.90
45765;DHT22;31474;45.332;10.230;2023-06-05T14:52:54;21.70;99.90
45765;DHT22;31474;45.332;10.230;2023-06-05T14:55:20;21.80;99.90
45765;DHT22;31474;45.332;10.230;2023-06-05T14:57:46;21.80;99.90
45765;DHT22;31474;45.332;10.230;2023-06-05T15:00:12;21.90;99.90
45765;DHT22;31474;45.332;10.230;2023-06-05T15:02:37;21.90;99.90
45765;DHT22;31474;45.332;10.230;2023-06-05T15:05:04;22.00;99.90
45765;DHT22;31474;45.332;10.230;2023-06-05T15:07:38;21.90;99.90
45765;DHT22;31474;45.332;10.230;2023-06-05T15:10:05;21.90;99.90
45765;DHT22;31474;45.332;10.230;2023-06-05T15:12:33;22.00;99.90
45765;DHT22;31474;45.332;10.230;2023-06-05T15:14:59;21.90;99.90
45765;DHT22;31474;45.332;10.230;2023-06-05T15:17:24;22.00;99.90
45765;DHT22;31474;45.332;10.230;2023-06-05T15:19:50;21.90;99.90
45765;DHT22;31474;45.332;10.230;2023-06-05T15:22:16;21.90;99.90
45765;DHT22;31474;45.332;10.230;2023-06-05T15:24:41;21.90;99.90
45765;DHT22;31474;45.332;10.230;2023-06-05T15:27:07;21.90;99.90
45765;DHT22;31474;45.332;10.230;2023-06-05T15:29:34;21.90;99.90
45765;DHT22;31474;45.332;10.230;2023-06-05T15:32:00;21.90;99.90
45765;DHT22;31474;45.332;10.230;2023-06-05T15:34:25;21.90;99.90
45765;DHT22;31474;45.332;10.230;2023-06-05T15:36:51;21.80;99.90
45765;DHT22;31474;45.332;10.230;2023-06-05T15:39:16;21.80;99.90